sensor_id;sensor_type;location;lat;lon;timestamp;temperature;humidity
47350;DHT22;33088;51.982;5.872;2022-11-02T00:00:50;13.60;99.90
47350;DHT22;33088;51.982;5.872;2022-11-02T00:03:16;13.60;99.90
47350;DHT22;33088;51.982;5.872;2022-11-02T00:05:42;13.70;99.90
47350;DHT22;33088;51.982;5.872;2022-11-02T00:08:07;13.60;99.90
47350;DHT22;33088;51.982;5.872;2022-11-02T00:10:33;13.60;99.90
47350;DHT22;33088;51.982;5.872;2022-11-02T00:12:59;13.70;99.90
47350;DHT22;33088;51.982;5.872;2022-11-02T00:15:27;13.80;99.90
47350;DHT22;33088;51.982;5.872;2022-11-02T00:17:55;13.70;99.90
47350;DHT22;33088;51.982;5.872;2022-11-02T00:20:22;13.70;99.90
47350;DHT22;33088;51.982;5.872;2022-11-02T00:22:51;13.90;99.90
47350;DHT22;33088;51.982;5.872;2022-11-02T00:25:20;13.80;99.90
47350;DHT22;33088;51.982;5.872;2022-11-02T00:27:47;13.80;99.90
47350;DHT22;33088;51.982;5.872;2022-11-02T00:30:13;14.00;99.90
47350;DHT22;33088;51.982;5.872;2022-11-02T00:32:39;13.70;99.90
47350;DHT22;33088;51.982;5.872;2022-11-02T00:35:05;13.50;99.90
47350;DHT22;33088;51.982;5.872;2022-11-02T00:37:31;13.50;99.90
47350;DHT22;33088;51.982;5.872;2022-11-02T00:39:57;13.40;99.90
47350;DHT22;33088;51.982;5.872;2022-11-02T00:42:22;13.40;99.90
47350;DHT22;33088;51.982;5.872;2022-11-02T00:44:48;13.30;99.90
47350;DHT22;33088;51.982;5.872;2022-11-02T00:47:14;13.30;99.90
47350;DHT22;33088;51.982;5.872;2022-11-02T00:49:40;13.20;99.90
47350;DHT22;33088;51.982;5.872;2022-11-02T00:52:07;13.20;99.90
47350;DHT22;33088;51.982;5.872;2022-11-02T00:54:33;13.10;99.90
47350;DHT22;33088;51.982;5.872;2022-11-02T00:56:58;13.10;99.90
47350;DHT22;33088;51.982;5.872;2022-11-02T00:59:24;13.10;99.90
47350;DHT22;33088;51.982;5.872;2022-11-02T01:01:50;12.90;99.90
47350;DHT22;33088;51.982;5.872;2022-11-02T01:04:16;12.90;99.90
47350;DHT22;33088;51.982;5.872;2022-11-02T01:06:42;12.90;99.90
47350;DHT22;33088;51.982;5.872;2022-11-02T01:09:09;12.90;99.90
47350;DHT22;33088;51.982;5.872;2022-11-02T01:11:35;12.90;99.90
47350;DHT22;33088;51.982;5.872;2022-11-02T01:14:00;12.90;99.90
47350;DHT22;33088;51.982;5.872;2022-11-02T01:16:26;13.00;99.90
47350;DHT22;33088;51.982;5.872;2022-11-02T01:18:54;12.90;99.90
47350;DHT22;33088;51.982;5.872;2022-11-02T01:21:20;13.10;99.90
47350;DHT22;33088;51.982;5.872;2022-11-02T01:23:45;13.00;99.90
47350;DHT22;33088;51.982;5.872;2022-11-02T01:26:11;13.10;99.90
47350;DHT22;33088;51.982;5.872;2022-11-02T01:28:38;13.10;99.90
47350;DHT22;33088;51.982;5.872;2022-11-02T01:31:05;13.10;99.90
47350;DHT22;33088;51.982;5.872;2022-11-02T01:33:31;13.00;99.90
47350;DHT22;33088;51.982;5.872;2022-11-02T01:35:57;13.00;99.90
47350;DHT22;33088;51.982;5.872;2022-11-02T01:38:23;13.00;99.90
47350;DHT22;33088;51.982;5.872;2022-11-02T01:40:49;13.10;99.90
47350;DHT22;33088;51.982;5.872;2022-11-02T01:43:19;13.10;99.90
47350;DHT22;33088;51.982;5.872;2022-11-02T01:45:45;13.20;99.90
47350;DHT22;33088;51.982;5.872;2022-11-02T01:48:12;13.20;99.90
47350;DHT22;33088;51.982;5.872;2022-11-02T01:50:38;12.70;99.90
47350;DHT22;33088;51.982;5.872;2022-11-02T01:53:04;12.20;99.90
47350;DHT22;33088;51.982;5.872;2022-11-02T01:55:31;12.00;99.90
47350;DHT22;33088;51.982;5.872;2022-11-02T01:58:02;11.90;99.90
47350;DHT22;33088;51.982;5.872;2022-11-02T02:00:29;11.60;99.90
47350;DHT22;33088;51.982;5.872;2022-11-02T02:05:40;11.50;99.90
47350;DHT22;33088;51.982;5.872;2022-11-02T02:08:07;11.40;99.90
47350;DHT22;33088;51.982;5.872;2022-11-02T02:10:34;11.40;99.90
47350;DHT22;33088;51.982;5.872;2022-11-02T02:13:04;11.40;99.90
47350;DHT22;33088;51.982;5.872;2022-11-02T02:18:52;11.40;99.90
47350;DHT22;33088;51.982;5.872;2022-11-02T02:24:29;11.30;99.90
47350;DHT22;33088;51.982;5.872;2022-11-02T02:27:22;11.40;99.90
47350;DHT22;33088;51.982;5.872;2022-11-02T02:32:35;11.30;99.90
47350;DHT22;33088;51.982;5.872;2022-11-02T02:40:24;11.20;99.90
47350;DHT22;33088;51.982;5.872;2022-11-02T02:45:39;11.00;99.90
47350;DHT22;33088;51.982;5.872;2022-11-02T02:48:20;11.10;99.90
47350;DHT22;33088;51.982;5.872;2022-11-02T02:50:48;10.90;99.90
47350;DHT22;33088;51.982;5.872;2022-11-02T02:53:19;10.90;99.90
47350;DHT22;33088;51.982;5.872;2022-11-02T02:55:48;10.90;99.90
47350;DHT22;33088;51.982;5.872;2022-11-02T02:58:19;10.80;99.90
47350;DHT22;33088;51.982;5.872;2022-11-02T03:00:46;10.90;99.90
47350;DHT22;33088;51.982;5.872;2022-11-02T03:03:18;10.90;99.90
47350;DHT22;33088;51.982;5.872;2022-11-02T03:05:45;10.90;99.90
47350;DHT22;33088;51.982;5.872;2022-11-02T03:08:20;11.10;99.90
47350;DHT22;33088;51.982;5.872;2022-11-02T03:11:01;11.20;99.90
47350;DHT22;33088;51.982;5.872;2022-11-02T03:19:23;11.40;99.90
47350;DHT22;33088;51.982;5.872;2022-11-02T03:22:17;11.50;99.90
47350;DHT22;33088;51.982;5.872;2022-11-02T03:27:38;11.70;99.90
47350;DHT22;33088;51.982;5.872;2022-11-02T03:30:17;11.70;99.90
47350;DHT22;33088;51.982;5.872;2022-11-02T03:35:47;11.70;99.90
47350;DHT22;33088;51.982;5.872;2022-11-02T03:38:24;11.70;99.90
47350;DHT22;33088;51.982;5.872;2022-11-02T03:40:58;11.70;99.90
47350;DHT22;33088;51.982;5.872;2022-11-02T03:43:27;11.70;99.90
47350;DHT22;33088;51.982;5.872;2022-11-02T03:45:56;11.80;99.90
47350;DHT22;33088;51.982;5.872;2022-11-02T03:48:28;11.90;99.90
47350;DHT22;33088;51.982;5.872;2022-11-02T03:50:57;11.80;99.90
47350;DHT22;33088;51.982;5.872;2022-11-02T03:53:33;11.80;99.90
47350;DHT22;33088;51.982;5.872;2022-11-02T03:56:08;11.70;99.90
47350;DHT22;33088;51.982;5.872;2022-11-02T03:58:37;11.70;99.90
47350;DHT22;33088;51.982;5.872;2022-11-02T04:01:05;11.70;99.90
47350;DHT22;33088;51.982;5.872;2022-11-02T04:03:33;11.70;99.90
47350;DHT22;33088;51.982;5.872;2022-11-02T04:06:02;11.70;99.90
47350;DHT22;33088;51.982;5.872;2022-11-02T04:08:35;11.80;99.90
47350;DHT22;33088;51.982;5.872;2022-11-02T04:11:04;11.70;99.90
47350;DHT22;33088;51.982;5.872;2022-11-02T04:14:07;11.70;99.90
47350;DHT22;33088;51.982;5.872;2022-11-02T04:16:52;11.70;99.90
47350;DHT22;33088;51.982;5.872;2022-11-02T04:19:46;11.70;99.90
47350;DHT22;33088;51.982;5.872;2022-11-02T04:22:11;11.70;99.90
47350;DHT22;33088;51.982;5.872;2022-11-02T04:25:04;11.70;99.90
47350;DHT22;33088;51.982;5.872;2022-11-02T04:28:07;11.70;99.90
47350;DHT22;33088;51.982;5.872;2022-11-02T04:30:34;11.70;99.90
47350;DHT22;33088;51.982;5.872;2022-11-02T04:33:00;11.70;99.90
47350;DHT22;33088;51.982;5.872;2022-11-02T04:35:53;11.70;99.90
47350;DHT22;33088;51.982;5.872;2022-11-02T04:38:20;11.80;99.90
47350;DHT22;33088;51.982;5.872;2022-11-02T04:41:04;11.80;99.90
47350;DHT22;33088;51.982;5.872;2022-11-02T04:43:52;11.80;99.90
47350;DHT22;33088;51.982;5.872;2022-11-02T04:46:19;11.90;99.90
47350;DHT22;33088;51.982;5.872;2022-11-02T04:48:46;12.00;99.90
47350;DHT22;33088;51.982;5.872;2022-11-02T04:51:12;12.00;99.90
47350;DHT22;33088;51.982;5.872;2022-11-02T04:53:38;12.10;99.90
47350;DHT22;33088;51.982;5.872;2022-11-02T04:56:07;12.20;99.90
47350;DHT22;33088;51.982;5.872;2022-11-02T04:58:33;12.00;99.90
47350;DHT22;33088;51.982;5.872;2022-11-02T05:01:06;12.00;99.90
47350;DHT22;33088;51.982;5.872;2022-11-02T05:03:33;11.90;99.90
47350;DHT22;33088;51.982;5.872;2022-11-02T05:05:59;12.00;99.90
47350;DHT22;33088;51.982;5.872;2022-11-02T05:08:26;12.00;99.90
47350;DHT22;33088;51.982;5.872;2022-11-02T05:10:54;12.00;99.90
47350;DHT22;33088;51.982;5.872;2022-11-02T05:13:22;12.00;99.90
47350;DHT22;33088;51.982;5.872;2022-11-02T05:15:48;12.00;99.90
47350;DHT22;33088;51.982;5.872;2022-11-02T05:18:14;12.00;99.90
47350;DHT22;33088;51.982;5.872;2022-11-02T05:20:40;12.00;99.90
47350;DHT22;33088;51.982;5.872;2022-11-02T05:23:05;12.10;99.90
47350;DHT22;33088;51.982;5.872;2022-11-02T05:25:32;12.00;99.90
47350;DHT22;33088;51.982;5.872;2022-11-02T05:27:58;11.90;99.90
47350;DHT22;33088;51.982;5.872;2022-11-02T05:30:25;12.00;99.90
47350;DHT22;33088;51.982;5.872;2022-11-02T05:32:56;12.00;99.90
47350;DHT22;33088;51.982;5.872;2022-11-02T05:35:25;11.90;99.90
47350;DHT22;33088;51.982;5.872;2022-11-02T05:37:54;11.90;99.90
47350;DHT22;33088;51.982;5.872;2022-11-02T05:40:20;11.90;99.90
47350;DHT22;33088;51.982;5.872;2022-11-02T05:42:46;11.90;99.90
47350;DHT22;33088;51.982;5.872;2022-11-02T05:45:11;11.90;99.90
47350;DHT22;33088;51.982;5.872;2022-11-02T05:47:37;12.00;99.90
47350;DHT22;33088;51.982;5.872;2022-11-02T05:50:03;12.00;99.90
47350;DHT22;33088;51.982;5.872;2022-11-02T05:52:28;12.00;99.90
47350;DHT22;33088;51.982;5.872;2022-11-02T05:54:54;11.80;99.90
47350;DHT22;33088;51.982;5.872;2022-11-02T05:57:20;12.00;99.90
47350;DHT22;33088;51.982;5.872;2022-11-02T05:59:45;12.00;99.90
47350;DHT22;33088;51.982;5.872;2022-11-02T06:02:11;12.30;99.90
47350;DHT22;33088;51.982;5.872;2022-11-02T06:04:36;12.00;99.90
47350;DHT22;33088;51.982;5.872;2022-11-02T06:07:02;12.00;99.90
47350;DHT22;33088;51.982;5.872;2022-11-02T06:09:28;12.00;99.90
47350;DHT22;33088;51.982;5.872;2022-11-02T06:11:55;11.90;99.90
47350;DHT22;33088;51.982;5.872;2022-11-02T06:14:20;12.00;99.90
47350;DHT22;33088;51.982;5.872;2022-11-02T06:16:46;12.00;99.90
47350;DHT22;33088;51.982;5.872;2022-11-02T06:19:12;11.90;99.90
47350;DHT22;33088;51.982;5.872;2022-11-02T06:21:37;11.90;99.90
47350;DHT22;33088;51.982;5.872;2022-11-02T06:24:03;11.90;99.90
47350;DHT22;33088;51.982;5.872;2022-11-02T06:26:29;11.90;99.90
47350;DHT22;33088;51.982;5.872;2022-11-02T06:28:54;11.90;99.90
47350;DHT22;33088;51.982;5.872;2022-11-02T06:31:20;11.90;99.90
47350;DHT22;33088;51.982;5.872;2022-11-02T06:33:46;11.90;99.90
47350;DHT22;33088;51.982;5.872;2022-11-02T06:36:11;11.90;99.90
47350;DHT22;33088;51.982;5.872;2022-11-02T06:38:37;11.90;99.90
47350;DHT22;33088;51.982;5.872;2022-11-02T06:41:03;11.80;99.90
47350;DHT22;33088;51.982;5.872;2022-11-02T06:43:32;11.70;99.90
47350;DHT22;33088;51.982;5.872;2022-11-02T06:45:58;11.60;99.90
47350;DHT22;33088;51.982;5.872;2022-11-02T06:48:25;11.60;99.90
47350;DHT22;33088;51.982;5.872;2022-11-02T06:50:51;11.50;99.90
47350;DHT22;33088;51.982;5.872;2022-11-02T06:53:17;11.50;99.90
47350;DHT22;33088;51.982;5.872;2022-11-02T06:55:43;11.50;99.90
47350;DHT22;33088;51.982;5.872;2022-11-02T06:58:09;11.40;99.90
47350;DHT22;33088;51.982;5.872;2022-11-02T07:00:35;11.40;99.90
47350;DHT22;33088;51.982;5.872;2022-11-02T07:03:05;11.30;99.90
47350;DHT22;33088;51.982;5.872;2022-11-02T07:05:32;11.30;99.90
47350;DHT22;33088;51.982;5.872;2022-11-02T07:07:58;11.30;99.90
47350;DHT22;33088;51.982;5.872;2022-11-02T07:10:24;11.30;99.90
47350;DHT22;33088;51.982;5.872;2022-11-02T07:12:52;11.30;99.90
47350;DHT22;33088;51.982;5.872;2022-11-02T07:15:18;11.30;99.90
47350;DHT22;33088;51.982;5.872;2022-11-02T07:17:44;11.30;99.90
47350;DHT22;33088;51.982;5.872;2022-11-02T07:20:10;11.30;99.90
47350;DHT22;33088;51.982;5.872;2022-11-02T07:22:36;11.30;99.90
47350;DHT22;33088;51.982;5.872;2022-11-02T07:25:02;11.30;99.90
47350;DHT22;33088;51.982;5.872;2022-11-02T07:27:28;11.20;99.90
47350;DHT22;33088;51.982;5.872;2022-11-02T07:29:53;11.20;99.90
47350;DHT22;33088;51.982;5.872;2022-11-02T07:32:19;11.20;99.90
47350;DHT22;33088;51.982;5.872;2022-11-02T07:34:45;11.20;99.90
47350;DHT22;33088;51.982;5.872;2022-11-02T07:37:10;11.20;99.90
47350;DHT22;33088;51.982;5.872;2022-11-02T07:39:36;11.20;99.90
47350;DHT22;33088;51.982;5.872;2022-11-02T07:42:02;11.30;99.90
47350;DHT22;33088;51.982;5.872;2022-11-02T07:44:27;11.40;99.90
47350;DHT22;33088;51.982;5.872;2022-11-02T07:46:55;11.40;99.90
47350;DHT22;33088;51.982;5.872;2022-11-02T07:49:21;11.50;99.90
47350;DHT22;33088;51.982;5.872;2022-11-02T07:51:47;11.70;99.90
47350;DHT22;33088;51.982;5.872;2022-11-02T07:54:12;11.80;99.90
47350;DHT22;33088;51.982;5.872;2022-11-02T07:56:38;11.90;99.90
47350;DHT22;33088;51.982;5.872;2022-11-02T07:59:03;12.00;99.90
47350;DHT22;33088;51.982;5.872;2022-11-02T08:01:29;12.10;99.90
47350;DHT22;33088;51.982;5.872;2022-11-02T08:03:55;12.10;99.90
47350;DHT22;33088;51.982;5.872;2022-11-02T08:06:21;12.10;99.90
47350;DHT22;33088;51.982;5.872;2022-11-02T08:08:46;12.10;99.90
47350;DHT22;33088;51.982;5.872;2022-11-02T08:11:12;12.10;99.90
47350;DHT22;33088;51.982;5.872;2022-11-02T08:13:38;12.10;99.90
47350;DHT22;33088;51.982;5.872;2022-11-02T08:16:03;12.10;99.90
47350;DHT22;33088;51.982;5.872;2022-11-02T08:18:29;12.00;99.90
47350;DHT22;33088;51.982;5.872;2022-11-02T08:20:56;12.00;99.90
47350;DHT22;33088;51.982;5.872;2022-11-02T08:23:23;12.10;99.90
47350;DHT22;33088;51.982;5.872;2022-11-02T08:25:51;11.90;99.90
47350;DHT22;33088;51.982;5.872;2022-11-02T08:30:44;11.90;99.90
47350;DHT22;33088;51.982;5.872;2022-11-02T08:33:13;11.70;99.90
47350;DHT22;33088;51.982;5.872;2022-11-02T08:35:41;11.60;99.90
47350;DHT22;33088;51.982;5.872;2022-11-02T08:38:09;11.60;99.90
47350;DHT22;33088;51.982;5.872;2022-11-02T08:40:35;11.60;99.90
47350;DHT22;33088;51.982;5.872;2022-11-02T08:43:07;11.60;99.90
47350;DHT22;33088;51.982;5.872;2022-11-02T08:45:34;11.70;99.90
47350;DHT22;33088;51.982;5.872;2022-11-02T08:48:00;11.70;99.90
47350;DHT22;33088;51.982;5.872;2022-11-02T08:50:26;11.80;99.90
47350;DHT22;33088;51.982;5.872;2022-11-02T08:52:52;11.80;99.90
47350;DHT22;33088;51.982;5.872;2022-11-02T08:55:18;11.80;99.90
47350;DHT22;33088;51.982;5.872;2022-11-02T09:00:14;11.90;99.90
47350;DHT22;33088;51.982;5.872;2022-11-02T09:02:40;11.90;99.90
47350;DHT22;33088;51.982;5.872;2022-11-02T09:05:05;11.90;99.90
47350;DHT22;33088;51.982;5.872;2022-11-02T09:07:31;12.00;99.90
47350;DHT22;33088;51.982;5.872;2022-11-02T09:09:57;12.00;99.90
47350;DHT22;33088;51.982;5.872;2022-11-02T09:12:22;12.00;99.90
47350;DHT22;33088;51.982;5.872;2022-11-02T09:14:48;12.10;99.90
47350;DHT22;33088;51.982;5.872;2022-11-02T09:17:14;12.20;99.90
47350;DHT22;33088;51.982;5.872;2022-11-02T09:19:39;12.40;99.90
47350;DHT22;33088;51.982;5.872;2022-11-02T09:22:05;12.20;99.90
47350;DHT22;33088;51.982;5.872;2022-11-02T09:24:31;12.20;99.90
47350;DHT22;33088;51.982;5.872;2022-11-02T09:26:56;12.30;99.90
47350;DHT22;33088;51.982;5.872;2022-11-02T09:29:22;12.40;99.90
47350;DHT22;33088;51.982;5.872;2022-11-02T09:31:47;12.50;99.90
47350;DHT22;33088;51.982;5.872;2022-11-02T09:34:14;12.60;99.90
47350;DHT22;33088;51.982;5.872;2022-11-02T09:36:40;12.50;99.90
47350;DHT22;33088;51.982;5.872;2022-11-02T09:39:05;12.60;99.90
47350;DHT22;33088;51.982;5.872;2022-11-02T09:41:40;12.50;99.90
47350;DHT22;33088;51.982;5.872;2022-11-02T09:44:13;12.50;99.90
47350;DHT22;33088;51.982;5.872;2022-11-02T09:46:43;12.50;99.90
47350;DHT22;33088;51.982;5.872;2022-11-02T09:49:20;12.60;99.90
47350;DHT22;33088;51.982;5.872;2022-11-02T09:51:55;12.70;99.90
47350;DHT22;33088;51.982;5.872;2022-11-02T09:54:38;12.70;99.90
47350;DHT22;33088;51.982;5.872;2022-11-02T09:57:09;12.80;99.90
47350;DHT22;33088;51.982;5.872;2022-11-02T09:59:36;12.70;99.90
47350;DHT22;33088;51.982;5.872;2022-11-02T10:08:08;12.70;99.90
47350;DHT22;33088;51.982;5.872;2022-11-02T10:11:30;12.80;99.90
47350;DHT22;33088;51.982;5.872;2022-11-02T10:14:02;12.90;99.90
47350;DHT22;33088;51.982;5.872;2022-11-02T10:16:39;12.90;99.90
47350;DHT22;33088;51.982;5.872;2022-11-02T10:19:15;12.90;99.90
47350;DHT22;33088;51.982;5.872;2022-11-02T10:21:43;12.90;99.90
47350;DHT22;33088;51.982;5.872;2022-11-02T10:26:55;13.00;99.90
47350;DHT22;33088;51.982;5.872;2022-11-02T10:32:01;13.20;99.90
47350;DHT22;33088;51.982;5.872;2022-11-02T10:34:28;13.20;99.90
47350;DHT22;33088;51.982;5.872;2022-11-02T10:37:33;13.10;99.90
47350;DHT22;33088;51.982;5.872;2022-11-02T10:51:51;13.60;99.90
47350;DHT22;33088;51.982;5.872;2022-11-02T10:54:17;13.70;99.90
47350;DHT22;33088;51.982;5.872;2022-11-02T10:56:43;13.80;99.90
47350;DHT22;33088;51.982;5.872;2022-11-02T10:59:19;14.10;99.90
47350;DHT22;33088;51.982;5.872;2022-11-02T11:02:09;14.00;99.90
47350;DHT22;33088;51.982;5.872;2022-11-02T11:04:35;14.00;99.90
47350;DHT22;33088;51.982;5.872;2022-11-02T11:07:16;14.00;99.90
47350;DHT22;33088;51.982;5.872;2022-11-02T11:12:36;14.10;99.90
47350;DHT22;33088;51.982;5.872;2022-11-02T11:15:03;14.10;99.90
47350;DHT22;33088;51.982;5.872;2022-11-02T11:17:36;14.20;99.90
47350;DHT22;33088;51.982;5.872;2022-11-02T11:20:06;14.30;99.90
47350;DHT22;33088;51.982;5.872;2022-11-02T11:22:45;14.50;99.90
47350;DHT22;33088;51.982;5.872;2022-11-02T11:27:57;14.20;99.90
47350;DHT22;33088;51.982;5.872;2022-11-02T11:30:36;14.30;99.90
47350;DHT22;33088;51.982;5.872;2022-11-02T11:33:04;14.30;99.90
47350;DHT22;33088;51.982;5.872;2022-11-02T11:35:37;14.40;99.90
47350;DHT22;33088;51.982;5.872;2022-11-02T11:38:07;14.50;99.90
47350;DHT22;33088;51.982;5.872;2022-11-02T11:40:44;14.60;99.90
47350;DHT22;33088;51.982;5.872;2022-11-02T11:43:16;14.60;99.90
47350;DHT22;33088;51.982;5.872;2022-11-02T11:46:03;14.60;99.90
47350;DHT22;33088;51.982;5.872;2022-11-02T11:48:39;14.70;99.90
47350;DHT22;33088;51.982;5.872;2022-11-02T11:56:47;14.80;99.90
47350;DHT22;33088;51.982;5.872;2022-11-02T11:59:43;15.00;99.90
47350;DHT22;33088;51.982;5.872;2022-11-02T12:05:16;14.90;99.90
47350;DHT22;33088;51.982;5.872;2022-11-02T12:07:55;14.90;99.90
47350;DHT22;33088;51.982;5.872;2022-11-02T12:10:49;14.90;99.90
47350;DHT22;33088;51.982;5.872;2022-11-02T12:16:12;14.90;99.90
47350;DHT22;33088;51.982;5.872;2022-11-02T12:25:02;14.80;99.90
47350;DHT22;33088;51.982;5.872;2022-11-02T12:30:20;14.60;99.90
47350;DHT22;33088;51.982;5.872;2022-11-02T12:35:36;14.60;99.90
47350;DHT22;33088;51.982;5.872;2022-11-02T12:38:38;14.70;99.90
47350;DHT22;33088;51.982;5.872;2022-11-02T12:41:20;15.00;99.90
47350;DHT22;33088;51.982;5.872;2022-11-02T12:44:05;15.00;99.90
47350;DHT22;33088;51.982;5.872;2022-11-02T12:49:48;14.90;99.90
47350;DHT22;33088;51.982;5.872;2022-11-02T12:52:25;14.90;99.90
47350;DHT22;33088;51.982;5.872;2022-11-02T12:54:56;14.80;99.90
47350;DHT22;33088;51.982;5.872;2022-11-02T12:57:26;14.80;99.90
47350;DHT22;33088;51.982;5.872;2022-11-02T12:59:58;14.60;99.90
47350;DHT22;33088;51.982;5.872;2022-11-02T13:02:31;14.50;99.90
47350;DHT22;33088;51.982;5.872;2022-11-02T13:05:08;14.60;99.90
47350;DHT22;33088;51.982;5.872;2022-11-02T13:07:41;14.60;99.90
47350;DHT22;33088;51.982;5.872;2022-11-02T13:12:41;14.90;99.90
47350;DHT22;33088;51.982;5.872;2022-11-02T13:15:12;14.90;99.90
47350;DHT22;33088;51.982;5.872;2022-11-02T13:17:52;14.80;99.90
47350;DHT22;33088;51.982;5.872;2022-11-02T13:20:35;14.90;99.90
47350;DHT22;33088;51.982;5.872;2022-11-02T13:26:23;14.80;99.90
47350;DHT22;33088;51.982;5.872;2022-11-02T13:28:47;14.80;99.90
47350;DHT22;33088;51.982;5.872;2022-11-02T13:31:17;14.80;99.90
47350;DHT22;33088;51.982;5.872;2022-11-02T13:33:51;14.60;99.90
47350;DHT22;33088;51.982;5.872;2022-11-02T13:36:18;14.50;99.90
47350;DHT22;33088;51.982;5.872;2022-11-02T13:41:39;14.70;99.90
47350;DHT22;33088;51.982;5.872;2022-11-02T13:49:49;14.80;99.90
47350;DHT22;33088;51.982;5.872;2022-11-02T13:53:05;14.80;99.90
47350;DHT22;33088;51.982;5.872;2022-11-02T13:55:07;14.80;99.90
47350;DHT22;33088;51.982;5.872;2022-11-02T13:57:38;14.70;99.90
47350;DHT22;33088;51.982;5.872;2022-11-02T14:05:24;14.60;99.90
47350;DHT22;33088;51.982;5.872;2022-11-02T14:07:53;14.60;99.90
47350;DHT22;33088;51.982;5.872;2022-11-02T14:10:18;14.70;99.90
47350;DHT22;33088;51.982;5.872;2022-11-02T14:12:45;14.60;99.90
47350;DHT22;33088;51.982;5.872;2022-11-02T14:20:36;14.60;99.90
47350;DHT22;33088;51.982;5.872;2022-11-02T14:25:47;14.60;99.90
47350;DHT22;33088;51.982;5.872;2022-11-02T14:28:40;14.60;99.90
47350;DHT22;33088;51.982;5.872;2022-11-02T14:36:40;14.30;99.90
47350;DHT22;33088;51.982;5.872;2022-11-02T14:42:01;14.40;99.90
47350;DHT22;33088;51.982;5.872;2022-11-02T14:45:06;14.40;99.90
47350;DHT22;33088;51.982;5.872;2022-11-02T14:47:36;14.40;99.90
47350;DHT22;33088;51.982;5.872;2022-11-02T14:50:13;14.50;99.90
47350;DHT22;33088;51.982;5.872;2022-11-02T14:52:42;14.50;99.90
47350;DHT22;33088;51.982;5.872;2022-11-02T14:57:56;14.40;99.90
47350;DHT22;33088;51.982;5.872;2022-11-02T15:00:38;14.40;99.90
47350;DHT22;33088;51.982;5.872;2022-11-02T15:08:26;14.40;99.90
47350;DHT22;33088;51.982;5.872;2022-11-02T15:10:52;14.30;99.90
47350;DHT22;33088;51.982;5.872;2022-11-02T15:18:36;14.10;99.90
47350;DHT22;33088;51.982;5.872;2022-11-02T15:26:12;13.90;99.90
47350;DHT22;33088;51.982;5.872;2022-11-02T15:28:42;13.80;99.90
47350;DHT22;33088;51.982;5.872;2022-11-02T15:31:27;13.70;99.90
47350;DHT22;33088;51.982;5.872;2022-11-02T15:33:58;13.70;99.90
47350;DHT22;33088;51.982;5.872;2022-11-02T15:36:32;13.60;99.90
47350;DHT22;33088;51.982;5.872;2022-11-02T15:39:05;13.50;99.90
47350;DHT22;33088;51.982;5.872;2022-11-02T15:47:24;13.50;99.90
47350;DHT22;33088;51.982;5.872;2022-11-02T16:00:28;13.20;99.90
47350;DHT22;33088;51.982;5.872;2022-11-02T16:03:00;13.10;99.90
47350;DHT22;33088;51.982;5.872;2022-11-02T16:05:31;13.10;99.90
47350;DHT22;33088;51.982;5.872;2022-11-02T16:07:57;13.10;99.90
47350;DHT22;33088;51.982;5.872;2022-11-02T16:10:26;13.10;99.90
47350;DHT22;33088;51.982;5.872;2022-11-02T16:13:19;13.00;99.90
47350;DHT22;33088;51.982;5.872;2022-11-02T16:15:46;13.10;99.90
47350;DHT22;33088;51.982;5.872;2022-11-02T16:18:26;13.00;99.90
47350;DHT22;33088;51.982;5.872;2022-11-02T16:20:57;13.00;99.90
47350;DHT22;33088;51.982;5.872;2022-11-02T16:23:28;13.10;99.90
47350;DHT22;33088;51.982;5.872;2022-11-02T16:25:56;12.90;99.90
47350;DHT22;33088;51.982;5.872;2022-11-02T16:28:25;12.90;99.90
47350;DHT22;33088;51.982;5.872;2022-11-02T16:33:52;12.80;99.90
47350;DHT22;33088;51.982;5.872;2022-11-02T16:36:36;12.70;99.90
47350;DHT22;33088;51.982;5.872;2022-11-02T16:39:16;12.70;99.90
47350;DHT22;33088;51.982;5.872;2022-11-02T16:41:48;12.50;99.90
47350;DHT22;33088;51.982;5.872;2022-11-02T16:44:24;12.40;99.90
47350;DHT22;33088;51.982;5.872;2022-11-02T16:49:22;12.30;99.90
47350;DHT22;33088;51.982;5.872;2022-11-02T16:51:59;12.30;99.90
47350;DHT22;33088;51.982;5.872;2022-11-02T16:54:36;12.40;99.90
47350;DHT22;33088;51.982;5.872;2022-11-02T17:02:17;12.30;99.90
47350;DHT22;33088;51.982;5.872;2022-11-02T17:04:44;12.30;99.90
47350;DHT22;33088;51.982;5.872;2022-11-02T17:09:39;12.30;99.90
47350;DHT22;33088;51.982;5.872;2022-11-02T17:12:15;12.30;99.90
47350;DHT22;33088;51.982;5.872;2022-11-02T17:14:43;12.30;99.90
47350;DHT22;33088;51.982;5.872;2022-11-02T17:24:47;12.30;99.90
47350;DHT22;33088;51.982;5.872;2022-11-02T17:27:24;12.30;99.90
47350;DHT22;33088;51.982;5.872;2022-11-02T17:29:51;12.30;99.90
47350;DHT22;33088;51.982;5.872;2022-11-02T17:32:18;12.30;99.90
47350;DHT22;33088;51.982;5.872;2022-11-02T17:37:40;12.30;99.90
47350;DHT22;33088;51.982;5.872;2022-11-02T17:40:10;12.30;99.90
47350;DHT22;33088;51.982;5.872;2022-11-02T17:42:36;12.30;99.90
47350;DHT22;33088;51.982;5.872;2022-11-02T17:45:24;12.20;99.90
47350;DHT22;33088;51.982;5.872;2022-11-02T17:47:50;12.20;99.90
47350;DHT22;33088;51.982;5.872;2022-11-02T17:50:16;12.20;99.90
47350;DHT22;33088;51.982;5.872;2022-11-02T17:52:42;12.10;99.90
47350;DHT22;33088;51.982;5.872;2022-11-02T17:55:13;12.10;99.90
47350;DHT22;33088;51.982;5.872;2022-11-02T17:57:39;12.10;99.90
47350;DHT22;33088;51.982;5.872;2022-11-02T18:00:05;12.00;99.90
47350;DHT22;33088;51.982;5.872;2022-11-02T18:02:37;12.00;99.90
47350;DHT22;33088;51.982;5.872;2022-11-02T18:07:57;11.80;99.90
47350;DHT22;33088;51.982;5.872;2022-11-02T18:10:29;12.00;99.90
47350;DHT22;33088;51.982;5.872;2022-11-02T18:12:55;11.80;99.90
47350;DHT22;33088;51.982;5.872;2022-11-02T18:15:24;11.80;99.90
47350;DHT22;33088;51.982;5.872;2022-11-02T18:17:50;11.90;99.90
47350;DHT22;33088;51.982;5.872;2022-11-02T18:20:17;11.90;99.90
47350;DHT22;33088;51.982;5.872;2022-11-02T18:22:43;12.00;99.90
47350;DHT22;33088;51.982;5.872;2022-11-02T18:25:11;11.90;99.90
47350;DHT22;33088;51.982;5.872;2022-11-02T18:27:38;12.00;99.90
47350;DHT22;33088;51.982;5.872;2022-11-02T18:30:05;12.00;99.90
47350;DHT22;33088;51.982;5.872;2022-11-02T18:32:34;12.00;99.90
47350;DHT22;33088;51.982;5.872;2022-11-02T18:35:00;12.00;99.90
47350;DHT22;33088;51.982;5.872;2022-11-02T18:37:26;12.10;99.90
47350;DHT22;33088;51.982;5.872;2022-11-02T18:39:51;12.10;99.90
47350;DHT22;33088;51.982;5.872;2022-11-02T18:42:17;12.10;99.90
47350;DHT22;33088;51.982;5.872;2022-11-02T18:44:42;12.10;99.90
47350;DHT22;33088;51.982;5.872;2022-11-02T18:47:08;12.10;99.90
47350;DHT22;33088;51.982;5.872;2022-11-02T18:49:34;12.10;99.90
47350;DHT22;33088;51.982;5.872;2022-11-02T18:51:59;12.20;99.90
47350;DHT22;33088;51.982;5.872;2022-11-02T18:54:25;12.30;99.90
47350;DHT22;33088;51.982;5.872;2022-11-02T18:56:50;12.10;99.90